Time;durP1;ratioP1;P1;durP2;ratioP2;P2;SDS_P1;SDS_P2;PMS_P1;PMS_P2;Temp;Humidity;BMP_temperature;BMP_pressure;BME280_temperature;BME280_humidity;BME280_pressure;Samples;Min_cycle;Max_cycle;Signal;HPM_P1;HPM_P2
2023/09/08 00:02:08;;;;;;;7.63;6.70;;;21.20;1.00;;;;;;5048023;28;20178;-82
2023/09/08 00:04:33;;;;;;;6.50;5.83;;;21.20;1.00;;;;;;5047615;28;20174;-81
2023/09/08 00:06:59;;;;;;;7.63;6.80;;;21.10;1.00;;;;;;5054690;28;20428;-79
2023/09/08 00:09:24;;;;;;;6.70;6.10;;;21.00;1.00;;;;;;5052645;28;20687;-82
2023/09/08 00:11:50;;;;;;;7.87;7.07;;;20.90;1.00;;;;;;5054925;28;20186;-80
2023/09/08 00:14:17;;;;;;;9.20;6.47;;;20.90;1.00;;;;;;5049970;28;20194;-82
2023/09/08 00:16:42;;;;;;;9.30;7.43;;;20.80;6.40;;;;;;5052039;28;20205;-80
2023/09/08 00:19:09;;;;;;;7.30;6.60;;;20.80;34.50;;;;;;5051584;28;20454;-80
2023/09/08 00:21:36;;;;;;;12.37;8.37;;;20.70;56.10;;;;;;5053033;28;20280;-81
2023/09/08 00:24:01;;;;;;;7.77;6.27;;;20.70;81.20;;;;;;5053924;28;20431;-82
2023/09/08 00:26:27;;;;;;;9.00;6.90;;;20.70;94.90;;;;;;5053563;28;20455;-81
2023/09/08 00:28:52;;;;;;;7.90;6.80;;;20.60;99.90;;;;;;5048939;28;20201;-81
2023/09/08 00:31:18;;;;;;;7.70;6.90;;;20.60;99.90;;;;;;5055028;28;20225;-82
2023/09/08 00:33:44;;;;;;;7.90;7.07;;;20.60;99.90;;;;;;5054271;28;20201;-82
2023/09/08 00:36:10;;;;;;;12.33;7.50;;;20.60;99.90;;;;;;5053130;28;22074;-81
2023/09/08 00:38:35;;;;;;;7.80;6.83;;;20.60;99.90;;;;;;5053253;28;20182;-81
2023/09/08 00:41:01;;;;;;;12.37;6.90;;;20.60;99.90;;;;;;5054239;28;20460;-79
2023/09/08 00:43:26;;;;;;;9.03;6.63;;;20.60;99.90;;;;;;5053533;28;20248;-82
2023/09/08 00:45:54;;;;;;;8.43;7.00;;;20.60;99.90;;;;;;5053934;28;20250;-81
2023/09/08 00:48:20;;;;;;;6.80;6.20;;;20.60;99.90;;;;;;5054332;28;20178;-81
2023/09/08 00:50:45;;;;;;;7.13;6.40;;;20.60;99.90;;;;;;5054588;28;20547;-80
2023/09/08 00:53:12;;;;;;;7.80;7.07;;;20.60;99.90;;;;;;5051066;28;20443;-81
2023/09/08 00:55:39;;;;;;;7.23;6.53;;;20.50;99.90;;;;;;5054312;28;20198;-81
2023/09/08 00:58:04;;;;;;;9.00;6.97;;;20.40;99.90;;;;;;5053326;28;20506;-80
2023/09/08 01:00:32;;;;;;;7.73;6.93;;;20.40;99.90;;;;;;5054455;28;20464;-81
2023/09/08 01:02:59;;;;;;;9.33;7.57;;;20.40;99.90;;;;;;5053126;28;20307;-81
2023/09/08 01:05:25;;;;;;;10.60;7.23;;;20.40;99.90;;;;;;5050318;28;20578;-81
2023/09/08 01:07:52;;;;;;;8.10;6.77;;;20.40;99.90;;;;;;5052923;28;20583;-82
2023/09/08 01:10:17;;;;;;;8.77;7.77;;;20.40;99.90;;;;;;5054689;28;20776;-82
2023/09/08 01:12:43;;;;;;;7.53;6.70;;;20.40;99.90;;;;;;5052532;28;20519;-81
2023/09/08 01:15:09;;;;;;;8.13;6.90;;;20.40;99.90;;;;;;5054233;28;20220;-81
2023/09/08 01:17:34;;;;;;;12.30;7.00;;;20.30;99.90;;;;;;5050256;28;20742;-80
2023/09/08 01:20:21;;;;;;;8.83;6.57;;;20.30;99.90;;;;;;5036007;28;20213;-80
2023/09/08 01:22:58;;;;;;;8.53;7.60;;;20.30;99.90;;;;;;5063584;28;20653;-81
2023/09/08 01:25:26;;;;;;;7.27;6.57;;;20.30;99.90;;;;;;5050071;28;21063;-81
2023/09/08 01:27:57;;;;;;;13.27;6.73;;;20.20;99.90;;;;;;5050327;28;20440;-81
2023/09/08 01:30:25;;;;;;;8.73;7.83;;;20.20;99.90;;;;;;5053200;28;20472;-80
2023/09/08 01:32:51;;;;;;;8.43;7.63;;;20.20;99.90;;;;;;5051154;28;20969;-82
2023/09/08 01:35:17;;;;;;;8.97;7.53;;;20.20;99.90;;;;;;5052138;28;20468;-80
2023/09/08 01:37:47;;;;;;;10.37;7.50;;;20.10;99.90;;;;;;5050511;28;20793;-80
2023/09/08 01:40:14;;;;;;;11.97;8.87;;;20.10;99.90;;;;;;5051667;28;20551;-81
2023/09/08 01:42:40;;;;;;;7.50;6.80;;;20.10;99.90;;;;;;5048341;28;20503;-80
2023/09/08 01:45:06;;;;;;;11.13;7.90;;;20.10;99.90;;;;;;5052418;28;20472;-80
2023/09/08 01:47:33;;;;;;;15.07;7.73;;;20.00;99.90;;;;;;5050346;28;21161;-80
2023/09/08 01:49:58;;;;;;;7.47;6.20;;;20.00;99.90;;;;;;5051406;28;20518;-80
2023/09/08 01:52:25;;;;;;;8.83;7.73;;;20.00;99.90;;;;;;5050111;28;20436;-79
2023/09/08 01:54:50;;;;;;;9.27;6.93;;;20.00;1.00;;;;;;5050955;28;20233;-83
2023/09/08 01:57:16;;;;;;;8.70;7.80;;;19.90;1.00;;;;;;5049342;28;20468;-81
2023/09/08 01:59:42;;;;;;;11.97;8.40;;;19.90;1.00;;;;;;5049474;28;20301;-81
2023/09/08 02:02:07;;;;;;;9.10;7.77;;;19.90;1.00;;;;;;5055488;28;20432;-82
2023/09/08 02:04:33;;;;;;;10.20;9.20;;;19.90;1.00;;;;;;5048700;28;20603;-81
2023/09/08 02:06:59;;;;;;;7.90;7.10;;;19.80;1.00;;;;;;5049091;28;20789;-81
2023/09/08 02:09:32;;;;;;;10.60;7.50;;;19.80;1.00;;;;;;5045879;28;20207;-80
2023/09/08 02:11:57;;;;;;;14.10;7.40;;;19.70;1.00;;;;;;5051937;28;20440;-81
2023/09/08 02:14:23;;;;;;;9.93;7.00;;;19.70;1.00;;;;;;5050739;28;20505;-83
2023/09/08 02:16:48;;;;;;;10.37;8.50;;;19.70;1.00;;;;;;5052427;28;20238;-82
2023/09/08 02:19:14;;;;;;;9.40;7.60;;;19.70;1.00;;;;;;5052469;28;20604;-82
2023/09/08 02:21:39;;;;;;;9.03;8.13;;;19.70;1.00;;;;;;5052721;28;20189;-81
2023/09/08 02:24:05;;;;;;;11.40;7.93;;;19.60;17.10;;;;;;5051500;28;20178;-81
2023/09/08 02:26:33;;;;;;;14.53;7.67;;;19.60;66.00;;;;;;5049076;28;20190;-82
2023/09/08 02:28:59;;;;;;;9.70;7.70;;;19.60;26.90;;;;;;5049840;28;20225;-83
2023/09/08 02:31:26;;;;;;;7.80;7.10;;;19.60;47.60;;;;;;5051395;28;20822;-81
2023/09/08 02:33:51;;;;;;;10.97;7.83;;;19.50;99.90;;;;;;5049804;28;20190;-82
2023/09/08 02:36:17;;;;;;;8.53;7.63;;;19.50;71.30;;;;;;5052509;28;20491;-81
2023/09/08 02:38:42;;;;;;;10.53;7.80;;;19.50;21.40;;;;;;5051504;28;20214;-81
2023/09/08 02:41:08;;;;;;;8.60;7.73;;;19.60;1.00;;;;;;5051424;28;20263;-82
2023/09/08 02:43:33;;;;;;;8.17;7.30;;;19.60;1.00;;;;;;5047634;28;20182;-83
2023/09/08 02:45:59;;;;;;;10.07;7.40;;;19.60;1.00;;;;;;5051246;28;20205;-81
2023/09/08 02:48:25;;;;;;;7.97;7.17;;;19.60;1.00;;;;;;5048971;28;20281;-80
2023/09/08 02:50:50;;;;;;;9.10;8.20;;;19.50;1.00;;;;;;5050753;28;20245;-82
2023/09/08 02:53:16;;;;;;;9.80;8.80;;;19.50;5.60;;;;;;5046473;28;20318;-81
2023/09/08 02:55:41;;;;;;;8.40;7.60;;;19.40;99.90;;;;;;5051842;28;20218;-81
2023/09/08 02:58:07;;;;;;;8.93;8.03;;;19.40;99.90;;;;;;5049917;28;20182;-81
2023/09/08 03:00:32;;;;;;;10.53;8.80;;;19.30;99.90;;;;;;5045743;28;20586;-81
2023/09/08 03:02:58;;;;;;;10.30;8.10;;;19.30;99.90;;;;;;5050089;28;20602;-80
2023/09/08 03:05:23;;;;;;;9.47;8.43;;;19.30;99.90;;;;;;5050733;28;20243;-82
2023/09/08 03:07:49;;;;;;;12.40;8.67;;;19.40;99.90;;;;;;5047133;28;20194;-80
2023/09/08 03:10:15;;;;;;;10.60;8.53;;;19.40;99.90;;;;;;5049281;28;20201;-80
2023/09/08 03:12:41;;;;;;;10.00;9.07;;;19.30;99.90;;;;;;5046185;28;20443;-82
2023/09/08 03:15:07;;;;;;;11.10;8.77;;;19.30;99.90;;;;;;5048560;28;20299;-80
2023/09/08 03:17:33;;;;;;;11.87;8.70;;;19.30;99.90;;;;;;5045108;28;20193;-81
2023/09/08 03:19:58;;;;;;;15.80;10.47;;;19.20;99.90;;;;;;5048891;28;20452;-81
2023/09/08 03:22:24;;;;;;;11.87;9.50;;;19.20;99.90;;;;;;5050208;28;20324;-81
2023/09/08 03:24:50;;;;;;;9.17;8.27;;;19.20;99.90;;;;;;5042748;28;20189;-81
2023/09/08 03:27:15;;;;;;;10.00;8.03;;;19.20;99.90;;;;;;5050557;28;20585;-81
2023/09/08 03:29:41;;;;;;;8.60;7.80;;;19.10;99.90;;;;;;5049355;28;20201;-81
2023/09/08 03:32:07;;;;;;;10.57;9.00;;;19.10;1.00;;;;;;5045763;28;20190;-80
2023/09/08 03:34:32;;;;;;;9.20;8.20;;;19.00;1.00;;;;;;5044830;28;20264;-83
2023/09/08 03:36:57;;;;;;;10.17;9.07;;;18.90;1.00;;;;;;5048206;28;20186;-81
2023/09/08 03:39:26;;;;;;;8.93;8.03;;;18.90;1.00;;;;;;5046659;28;20690;-81
2023/09/08 03:41:52;;;;;;;8.70;7.80;;;18.90;1.00;;;;;;5053639;28;20675;-81
2023/09/08 03:44:17;;;;;;;9.10;8.20;;;18.90;1.00;;;;;;5043055;28;20437;-82
2023/09/08 03:46:43;;;;;;;14.90;8.90;;;18.90;1.00;;;;;;5045196;28;20190;-80
2023/09/08 03:49:08;;;;;;;9.47;8.40;;;18.90;1.00;;;;;;5050592;28;20216;-81
2023/09/08 03:51:34;;;;;;;9.90;8.33;;;18.90;1.00;;;;;;5050402;28;20624;-82
2023/09/08 03:53:59;;;;;;;11.67;8.50;;;18.90;1.00;;;;;;5050361;28;20187;-82
2023/09/08 03:56:25;;;;;;;9.77;8.87;;;18.90;1.00;;;;;;5051901;28;20244;-79
2023/09/08 03:58:51;;;;;;;9.10;8.30;;;18.90;1.00;;;;;;5056231;28;20183;-81
2023/09/08 04:01:16;;;;;;;9.50;8.50;;;18.90;1.00;;;;;;5056669;28;20186;-82
2023/09/08 04:03:42;;;;;;;9.67;8.67;;;18.90;1.00;;;;;;5056063;28;20216;-80
2023/09/08 04:06:09;;;;;;;9.20;8.13;;;18.90;1.00;;;;;;5055586;28;20178;-82
2023/09/08 04:08:34;;;;;;;9.20;8.10;;;18.90;1.00;;;;;;5056093;28;20182;-83
2023/09/08 04:11:00;;;;;;;12.57;9.70;;;18.90;1.00;;;;;;5053061;28;20456;-81
2023/09/08 04:13:25;;;;;;;12.93;8.73;;;18.90;1.00;;;;;;5053007;28;20236;-81
2023/09/08 04:15:51;;;;;;;8.97;8.07;;;18.90;1.00;;;;;;5050484;28;20256;-82
2023/09/08 04:18:16;;;;;;;8.60;7.80;;;18.90;1.00;;;;;;5054247;28;20257;-82
2023/09/08 04:20:42;;;;;;;10.57;8.67;;;18.90;1.00;;;;;;5054649;28;20212;-79
2023/09/08 04:23:07;;;;;;;10.83;9.37;;;18.80;1.00;;;;;;5054953;28;20200;-82
2023/09/08 04:25:33;;;;;;;11.10;9.60;;;18.80;1.00;;;;;;5050919;28;20560;-81
2023/09/08 04:27:58;;;;;;;8.73;7.93;;;18.70;1.00;;;;;;5053916;28;20178;-80
2023/09/08 04:30:23;;;;;;;12.17;9.03;;;18.80;1.00;;;;;;5051925;28;20209;-82
2023/09/08 04:32:49;;;;;;;12.23;9.13;;;18.70;1.00;;;;;;5054212;28;20227;-80
2023/09/08 04:35:15;;;;;;;9.50;8.60;;;18.70;1.00;;;;;;5054653;28;20751;-81
2023/09/08 04:37:40;;;;;;;11.17;9.10;;;18.70;1.00;;;;;;5050692;28;20217;-81
2023/09/08 04:40:07;;;;;;;14.50;8.77;;;18.60;1.00;;;;;;5052521;28;20205;-81
2023/09/08 04:42:33;;;;;;;9.50;8.60;;;18.60;1.00;;;;;;5048940;28;20189;-82
2023/09/08 04:44:58;;;;;;;9.23;8.23;;;18.50;1.00;;;;;;5046667;28;20433;-81
2023/09/08 04:47:24;;;;;;;10.57;9.07;;;18.50;62.40;;;;;;5050545;28;20192;-80
2023/09/08 04:49:49;;;;;;;13.77;9.50;;;18.50;99.90;;;;;;5049986;28;20206;-81
2023/09/08 04:52:15;;;;;;;13.70;10.20;;;18.60;99.90;;;;;;5053040;28;20184;-81
2023/09/08 04:54:40;;;;;;;10.73;9.47;;;18.50;99.90;;;;;;5054074;28;20667;-81
2023/09/08 04:57:06;;;;;;;10.53;9.43;;;18.50;99.90;;;;;;5053725;28;20174;-81
2023/09/08 04:59:32;;;;;;;13.03;9.97;;;18.50;99.90;;;;;;5048045;28;20857;-82
2023/09/08 05:01:58;;;;;;;13.03;9.50;;;18.50;99.90;;;;;;5052073;28;20183;-81
2023/09/08 05:04:23;;;;;;;12.00;9.80;;;18.60;99.90;;;;;;5049902;28;20440;-82
2023/09/08 05:06:49;;;;;;;12.93;9.90;;;18.50;99.90;;;;;;5051294;28;20278;-81
2023/09/08 05:09:14;;;;;;;15.67;9.40;;;18.50;99.90;;;;;;5050374;28;20212;-77
2023/09/08 05:11:40;;;;;;;14.03;10.93;;;18.60;99.90;;;;;;5051670;28;20186;-81
2023/09/08 05:14:05;;;;;;;11.20;10.10;;;18.60;99.90;;;;;;5051185;28;20223;-82
2023/09/08 05:16:45;;;;;;;15.13;9.60;;;18.60;99.90;;;;;;5052278;28;20241;-80
2023/09/08 05:19:11;;;;;;;11.73;9.93;;;18.70;62.60;;;;;;5047390;28;20194;-81
2023/09/08 05:21:37;;;;;;;12.00;9.63;;;18.70;49.70;;;;;;5051035;28;20428;-81
2023/09/08 05:24:03;;;;;;;9.90;7.83;;;18.80;1.00;;;;;;5052460;28;20629;-82
2023/09/08 05:26:28;;;;;;;11.90;8.50;;;18.90;1.00;;;;;;5052459;28;20432;-82
2023/09/08 05:28:54;;;;;;;10.53;7.97;;;19.00;1.00;;;;;;5047695;28;20455;-80
2023/09/08 05:31:19;;;;;;;11.20;9.40;;;19.00;99.90;;;;;;5052197;28;20201;-81
2023/09/08 05:33:45;;;;;;;13.80;9.83;;;19.10;99.90;;;;;;5049171;28;20649;-82
2023/09/08 05:36:11;;;;;;;14.70;10.07;;;19.20;99.90;;;;;;5052055;28;20209;-82
2023/09/08 05:38:36;;;;;;;11.70;9.57;;;19.20;99.90;;;;;;5051058;28;20214;-82
2023/09/08 05:41:02;;;;;;;9.77;8.87;;;19.30;99.90;;;;;;5052040;28;20289;-80
2023/09/08 05:43:28;;;;;;;14.77;9.53;;;19.40;99.90;;;;;;5054936;28;20228;-83
2023/09/08 05:45:53;;;;;;;11.90;8.90;;;21.30;1.00;;;;;;5052979;28;20428;-83
2023/09/08 05:48:19;;;;;;;14.10;8.40;;;24.50;1.00;;;;;;5051197;28;20265;-82
2023/09/08 05:50:44;;;;;;;8.80;7.90;;;27.10;1.00;;;;;;5048971;28;20224;-82
2023/09/08 05:53:10;;;;;;;10.40;7.83;;;29.30;1.00;;;;;;5047229;28;20212;-83
2023/09/08 05:55:35;;;;;;;8.47;7.10;;;31.10;1.00;;;;;;5051310;28;20249;-83
2023/09/08 05:58:01;;;;;;;10.80;7.60;;;32.50;99.90;;;;;;5051793;28;20180;-82
2023/09/08 06:00:27;;;;;;;10.80;7.20;;;34.10;99.90;;;;;;5051485;28;20205;-82
2023/09/08 06:02:52;;;;;;;8.30;6.70;;;35.10;99.90;;;;;;5054619;28;20181;-85
2023/09/08 06:05:18;;;;;;;7.50;6.70;;;36.30;99.90;;;;;;5055534;28;20209;-80
2023/09/08 06:07:43;;;;;;;10.33;6.03;;;37.90;99.90;;;;;;5050607;28;21068;-82
2023/09/08 06:10:09;;;;;;;9.23;6.40;;;39.40;99.90;;;;;;5052725;28;20213;-84
2023/09/08 06:12:35;;;;;;;6.77;6.10;;;39.80;99.90;;;;;;5046140;28;20185;-83
2023/09/08 06:15:03;;;;;;;9.03;5.37;;;41.30;99.90;;;;;;5050479;28;20803;-82
2023/09/08 06:17:28;;;;;;;10.37;6.20;;;42.30;99.90;;;;;;5050949;28;20174;-81
2023/09/08 06:19:54;;;;;;;6.00;5.47;;;43.30;99.90;;;;;;5051254;28;20450;-81
2023/09/08 06:22:19;;;;;;;6.23;5.17;;;43.90;99.90;;;;;;5050221;28;20189;-81
2023/09/08 06:24:45;;;;;;;6.73;5.53;;;44.90;99.90;;;;;;5051857;28;20177;-82
2023/09/08 06:27:11;;;;;;;8.30;5.90;;;44.90;99.90;;;;;;5045103;28;20216;-81
2023/09/08 06:29:37;;;;;;;7.53;5.60;;;44.60;99.90;;;;;;5055825;28;20544;-82
2023/09/08 06:32:02;;;;;;;8.93;5.33;;;45.60;99.90;;;;;;5047533;28;20498;-82
2023/09/08 06:34:28;;;;;;;10.07;5.27;;;46.40;99.90;;;;;;5048070;28;20185;-83
2023/09/08 06:36:53;;;;;;;6.10;4.50;;;46.00;1.00;;;;;;5045286;28;20198;-81
2023/09/08 06:39:19;;;;;;;9.63;5.30;;;46.10;1.00;;;;;;5046348;28;20206;-80
2023/09/08 06:41:44;;;;;;;6.30;4.97;;;46.60;1.00;;;;;;5042596;28;20197;-81
2023/09/08 06:44:10;;;;;;;8.10;4.90;;;45.20;1.00;;;;;;5046628;28;20232;-82
2023/09/08 06:46:35;;;;;;;7.60;5.40;;;45.30;1.00;;;;;;5049288;28;20186;-78
2023/09/08 06:49:01;;;;;;;12.83;5.40;;;44.60;1.00;;;;;;5049197;28;20206;-82
2023/09/08 06:51:26;;;;;;;6.97;5.37;;;44.50;1.00;;;;;;5051827;28;20172;-82
2023/09/08 06:53:56;;;;;;;6.57;5.20;;;43.90;1.00;;;;;;5051887;28;20261;-82
2023/09/08 06:56:22;;;;;;;8.93;4.80;;;44.70;1.00;;;;;;5050263;28;20232;-82
2023/09/08 06:58:47;;;;;;;7.40;5.03;;;44.60;1.00;;;;;;5051325;28;20444;-81
2023/09/08 07:01:13;;;;;;;5.50;4.53;;;45.70;1.00;;;;;;5052293;28;20181;-83
2023/09/08 07:03:38;;;;;;;12.57;5.50;;;45.50;1.00;;;;;;5051542;28;20221;-82
2023/09/08 07:06:04;;;;;;;12.07;6.17;;;47.10;1.00;;;;;;5052099;28;20277;-82
2023/09/08 07:08:29;;;;;;;6.50;5.03;;;46.60;1.00;;;;;;5052269;28;20654;-82
2023/09/08 07:10:55;;;;;;;8.63;5.07;;;47.10;1.00;;;;;;5052292;28;20197;-82
2023/09/08 07:13:21;;;;;;;6.10;5.50;;;47.20;1.00;;;;;;5051196;28;20224;-81
2023/09/08 07:15:46;;;;;;;6.27;4.90;;;48.10;1.00;;;;;;5055092;28;20209;-82
2023/09/08 07:18:12;;;;;;;9.20;5.00;;;47.20;1.00;;;;;;5056529;28;20181;-82
2023/09/08 07:20:37;;;;;;;4.90;4.50;;;47.10;99.90;;;;;;5056622;28;20223;-80
2023/09/08 07:23:03;;;;;;;5.57;4.83;;;47.70;99.90;;;;;;5056484;28;20303;-82
2023/09/08 07:25:28;;;;;;;4.80;4.30;;;47.30;99.90;;;;;;5055988;28;20185;-83
2023/09/08 07:27:54;;;;;;;5.53;4.90;;;47.60;99.90;;;;;;5052542;28;20236;-80
2023/09/08 07:30:20;;;;;;;6.00;5.07;;;48.40;99.90;;;;;;5052095;28;20197;-82
2023/09/08 07:32:46;;;;;;;6.63;4.97;;;48.30;99.90;;;;;;5057503;28;20591;-82
2023/09/08 07:35:16;;;;;;;5.60;4.30;;;47.20;99.90;;;;;;5056886;28;20455;-82
2023/09/08 07:37:42;;;;;;;5.75;4.70;;;47.30;99.90;;;;;;5056230;28;20191;-81
2023/09/08 07:40:11;;;;;;;5.03;4.53;;;47.60;99.90;;;;;;5056709;28;20224;-80
2023/09/08 07:42:37;;;;;;;4.97;4.47;;;47.10;99.90;;;;;;5057505;28;20780;-82
2023/09/08 07:45:03;;;;;;;6.90;4.80;;;47.20;99.90;;;;;;5050274;28;20444;-82
2023/09/08 07:47:28;;;;;;;5.10;4.53;;;47.40;99.90;;;;;;5054891;28;20606;-83
2023/09/08 07:50:23;;;;;;;5.20;4.70;;;47.70;99.90;;;;;;5054929;28;20288;-82
2023/09/08 07:52:50;;;;;;;5.23;4.63;;;48.10;99.90;;;;;;5053589;28;20189;-82
2023/09/08 07:55:16;;;;;;;5.47;4.70;;;48.70;99.90;;;;;;5055188;28;20470;-83
2023/09/08 07:57:43;;;;;;;9.83;4.20;;;49.70;99.90;;;;;;5055109;28;20411;-81
2023/09/08 08:00:12;;;;;;;12.27;4.67;;;49.80;99.90;;;;;;5052404;28;20259;-80
2023/09/08 08:02:42;;;;;;;5.20;4.10;;;49.50;99.90;;;;;;5054937;28;20419;-82
2023/09/08 08:05:07;;;;;;;6.80;4.90;;;48.90;99.90;;;;;;5055015;28;20477;-82
2023/09/08 08:07:33;;;;;;;6.40;4.30;;;49.10;99.90;;;;;;5055475;28;20423;-82
2023/09/08 08:09:59;;;;;;;7.10;3.97;;;49.70;99.90;;;;;;5052520;28;20201;-83
2023/09/08 08:12:24;;;;;;;10.50;4.60;;;49.70;99.90;;;;;;5053705;28;20675;-79
2023/09/08 08:14:50;;;;;;;6.43;4.30;;;49.30;99.90;;;;;;5055883;28;20212;-81
2023/09/08 08:17:17;;;;;;;4.73;4.40;;;48.90;99.90;;;;;;5055791;28;20188;-82
2023/09/08 08:19:43;;;;;;;4.77;4.37;;;48.20;99.90;;;;;;5053084;28;20197;-82
2023/09/08 08:22:08;;;;;;;4.83;4.33;;;48.00;99.90;;;;;;5065418;28;20419;-82
2023/09/08 08:24:34;;;;;;;8.87;4.90;;;49.30;99.90;;;;;;5056098;28;20197;-83
2023/09/08 08:27:01;;;;;;;7.80;4.60;;;49.40;99.90;;;;;;5053746;28;20189;-83
2023/09/08 08:29:27;;;;;;;4.77;4.20;;;47.70;99.90;;;;;;5062466;28;20637;-82
2023/09/08 08:31:52;;;;;;;8.80;4.47;;;48.20;99.90;;;;;;5053269;28;20522;-82
2023/09/08 08:34:18;;;;;;;4.73;4.20;;;48.50;99.90;;;;;;5055555;28;20181;-84
2023/09/08 08:36:43;;;;;;;4.63;4.20;;;48.20;99.90;;;;;;5054480;28;20178;-82
2023/09/08 08:39:09;;;;;;;8.97;4.50;;;48.10;99.90;;;;;;5053504;28;20736;-81
2023/09/08 08:41:37;;;;;;;9.47;4.60;;;48.80;99.90;;;;;;5054772;28;20177;-83
2023/09/08 08:44:05;;;;;;;8.07;4.80;;;49.60;99.90;;;;;;5052915;28;20177;-82
2023/09/08 08:46:33;;;;;;;5.60;4.10;;;48.90;99.90;;;;;;5052671;28;20468;-82
2023/09/08 08:49:01;;;;;;;7.00;4.60;;;49.40;99.90;;;;;;5054377;28;20220;-82
2023/09/08 08:51:28;;;;;;;5.60;4.00;;;47.90;99.90;;;;;;5055820;28;20416;-81
2023/09/08 08:53:54;;;;;;;6.90;4.60;;;49.10;99.90;;;;;;5055217;28;20419;-82
2023/09/08 08:56:21;;;;;;;8.17;4.57;;;49.10;99.90;;;;;;5055648;28;20446;-82
2023/09/08 08:58:47;;;;;;;5.73;4.40;;;49.50;99.90;;;;;;5055722;28;20182;-82
2023/09/08 09:01:15;;;;;;;5.93;4.13;;;49.00;99.90;;;;;;5053533;28;20416;-80
2023/09/08 09:03:42;;;;;;;7.20;4.90;;;48.90;99.90;;;;;;5054682;28;20197;-82
2023/09/08 09:06:09;;;;;;;4.00;3.70;;;49.10;99.90;;;;;;5055256;28;20514;-82
2023/09/08 09:08:36;;;;;;;5.70;4.70;;;49.80;99.90;;;;;;5055179;28;20926;-82
2023/09/08 09:11:02;;;;;;;7.23;4.60;;;49.50;99.90;;;;;;5057122;28;20280;-82
2023/09/08 09:13:27;;;;;;;4.10;3.70;;;49.50;99.90;;;;;;5055539;28;20256;-80
2023/09/08 09:15:59;;;;;;;5.53;4.20;;;50.80;99.90;;;;;;5056173;28;20187;-82
2023/09/08 09:18:24;;;;;;;5.27;4.20;;;51.20;99.90;;;;;;5052874;28;20667;-83
2023/09/08 09:20:55;;;;;;;7.13;4.10;;;50.50;99.90;;;;;;5054907;28;20221;-82
2023/09/08 09:23:32;;;;;;;4.77;4.20;;;50.00;99.90;;;;;;5055354;28;20257;-82
2023/09/08 09:25:59;;;;;;;6.93;4.10;;;50.50;99.90;;;;;;5047238;28;20201;-82
2023/09/08 09:28:25;;;;;;;5.83;4.43;;;50.50;99.90;;;;;;5055489;28;20239;-83
2023/09/08 09:30:54;;;;;;;8.60;4.10;;;50.50;99.90;;;;;;5055513;28;20207;-82
2023/09/08 09:33:20;;;;;;;5.85;4.07;;;51.00;99.90;;;;;;5054293;28;20178;-82
2023/09/08 09:35:53;;;;;;;5.13;3.80;;;52.30;99.90;;;;;;5050852;28;20678;-82
2023/09/08 09:38:20;;;;;;;5.38;3.95;;;53.00;99.90;;;;;;5055319;28;20181;-82
2023/09/08 09:40:47;;;;;;;6.07;4.00;;;52.90;99.90;;;;;;5055420;28;20212;-82
2023/09/08 09:43:14;;;;;;;6.75;4.63;;;52.50;99.90;;;;;;5053143;28;20284;-81
2023/09/08 09:45:41;;;;;;;8.38;4.00;;;51.80;99.90;;;;;;5053372;28;20217;-83
2023/09/08 09:48:08;;;;;;;5.90;4.25;;;51.80;99.90;;;;;;5059492;28;20173;-81
2023/09/08 09:50:39;;;;;;;5.75;5.18;;;52.40;99.90;;;;;;5048941;28;20211;-83
2023/09/08 09:53:15;;;;;;;6.10;4.90;;;52.70;99.90;;;;;;5061398;28;20173;-82
2023/09/08 09:55:42;;;;;;;9.60;5.78;;;52.80;99.90;;;;;;5052978;28;20181;-82
2023/09/08 09:58:10;;;;;;;7.90;5.20;;;52.00;99.90;;;;;;5055388;28;20202;-82
2023/09/08 10:00:37;;;;;;;8.95;5.18;;;53.00;99.90;;;;;;5057656;28;20200;-82
2023/09/08 10:03:04;;;;;;;5.68;5.00;;;53.70;99.90;;;;;;5058198;28;20188;-81
2023/09/08 10:05:30;;;;;;;5.72;4.47;;;53.90;99.90;;;;;;5060033;28;20212;-83
2023/09/08 10:07:56;;;;;;;4.80;4.20;;;54.10;99.90;;;;;;5056550;28;20173;-83
2023/09/08 10:10:22;;;;;;;8.80;5.82;;;54.20;99.90;;;;;;5060290;28;20666;-83
2023/09/08 10:12:57;;;;;;;9.50;4.83;;;53.50;99.90;;;;;;5061601;28;20542;-83
2023/09/08 10:15:24;;;;;;;7.53;4.83;;;53.10;99.90;;;;;;5054404;28;20718;-83
2023/09/08 10:17:58;;;;;;;16.33;6.30;;;53.30;99.90;;;;;;5060715;28;20276;-83
2023/09/08 10:20:25;;;;;;;13.00;4.50;;;52.70;99.90;;;;;;5063243;28;20189;-83
2023/09/08 10:22:58;;;;;;;13.27;4.50;;;52.30;99.90;;;;;;5056317;28;20296;-82
2023/09/08 10:25:25;;;;;;;17.73;5.40;;;51.70;99.90;;;;;;5051427;28;20777;-82
2023/09/08 10:27:51;;;;;;;10.60;4.57;;;50.60;99.90;;;;;;5050285;28;20197;-81
2023/09/08 10:30:17;;;;;;;8.53;4.70;;;50.20;99.90;;;;;;5049127;28;20462;-83
2023/09/08 10:32:43;;;;;;;8.80;4.43;;;50.80;99.90;;;;;;5050530;28;20208;-82
2023/09/08 10:35:10;;;;;;;8.70;5.17;;;50.50;99.90;;;;;;5047700;28;20308;-82
2023/09/08 10:37:35;;;;;;;8.20;4.43;;;49.90;99.90;;;;;;5047962;28;20425;-84
2023/09/08 10:40:20;;;;;;;11.57;4.47;;;49.10;99.90;;;;;;5054322;28;20438;-83
2023/09/08 10:42:46;;;;;;;7.70;3.80;;;48.30;99.90;;;;;;5049502;28;20182;-84
2023/09/08 10:45:20;;;;;;;10.20;3.63;;;49.40;99.90;;;;;;5056315;28;20482;-84
2023/09/08 10:47:45;;;;;;;10.73;3.73;;;50.50;99.90;;;;;;5061253;28;20184;-83
2023/09/08 10:50:18;;;;;;;8.87;4.40;;;51.00;99.90;;;;;;5059778;28;20535;-84
2023/09/08 10:52:44;;;;;;;6.13;3.33;;;51.90;99.90;;;;;;5060103;28;20223;-83
2023/09/08 10:55:12;;;;;;;6.23;3.97;;;52.20;99.90;;;;;;5055916;28;20650;-84
2023/09/08 10:57:37;;;;;;;8.43;3.80;;;52.70;99.90;;;;;;5059262;28;20189;-84
2023/09/08 11:00:11;;;;;;;9.03;4.13;;;52.50;99.90;;;;;;5055957;28;20236;-84
2023/09/08 11:02:45;;;;;;;4.80;4.27;;;51.40;99.90;;;;;;5057821;28;20186;-83
2023/09/08 11:05:15;;;;;;;4.93;3.90;;;51.00;99.90;;;;;;5055831;28;20194;-83
2023/09/08 11:07:45;;;;;;;8.30;4.07;;;50.50;99.90;;;;;;5061983;28;20184;-84
2023/09/08 11:10:12;;;;;;;6.07;3.90;;;51.00;99.90;;;;;;5060583;28;20224;-84
2023/09/08 11:12:38;;;;;;;5.97;4.37;;;50.90;99.90;;;;;;5061292;28;20219;-85
2023/09/08 11:15:07;;;;;;;7.53;4.20;;;51.00;99.90;;;;;;5056929;28;20217;-84
2023/09/08 11:17:34;;;;;;;8.33;3.90;;;50.00;99.90;;;;;;5060009;28;20340;-84
2023/09/08 11:20:01;;;;;;;6.80;3.67;;;49.10;99.90;;;;;;5056981;28;20455;-85
2023/09/08 11:22:27;;;;;;;5.57;4.27;;;49.70;99.90;;;;;;5059446;28;20436;-83
2023/09/08 11:24:56;;;;;;;8.20;3.67;;;50.00;99.90;;;;;;5059087;28;20428;-83
2023/09/08 11:27:22;;;;;;;7.07;3.70;;;49.20;99.90;;;;;;5057924;28;20186;-84
2023/09/08 11:29:48;;;;;;;4.50;3.93;;;49.40;99.90;;;;;;5058973;28;20455;-82
2023/09/08 11:32:13;;;;;;;6.90;4.50;;;48.40;99.90;;;;;;5052576;28;20216;-82
2023/09/08 11:34:40;;;;;;;8.43;3.37;;;49.10;99.90;;;;;;5053894;28;20198;-84
2023/09/08 11:37:14;;;;;;;4.00;3.60;;;49.40;99.90;;;;;;5051424;28;20548;-80
2023/09/08 11:39:41;;;;;;;7.13;3.60;;;49.60;99.90;;;;;;5048905;28;20491;-83
2023/09/08 11:42:14;;;;;;;6.87;4.40;;;49.80;99.90;;;;;;5044232;28;20505;-81
2023/09/08 11:44:41;;;;;;;5.50;3.73;;;50.00;99.90;;;;;;5051113;28;20974;-83
2023/09/08 11:47:09;;;;;;;3.90;3.57;;;50.20;99.90;;;;;;5053709;28;20469;-81
2023/09/08 11:49:39;;;;;;;4.50;3.73;;;50.30;99.90;;;;;;5056876;28;20868;-82
2023/09/08 11:52:06;;;;;;;4.63;3.63;;;49.70;99.90;;;;;;5048949;28;20764;-83
2023/09/08 11:54:32;;;;;;;8.17;3.53;;;50.10;99.90;;;;;;5050612;28;20189;-83
2023/09/08 11:57:03;;;;;;;6.83;3.37;;;50.50;99.90;;;;;;5051268;28;20419;-83
2023/09/08 11:59:31;;;;;;;4.47;3.43;;;50.40;99.90;;;;;;5051067;28;20432;-83
2023/09/08 12:01:57;;;;;;;3.60;2.97;;;50.30;99.90;;;;;;5053996;28;20427;-83
2023/09/08 12:04:23;;;;;;;5.17;3.93;;;50.40;99.90;;;;;;5057782;28;20432;-83
2023/09/08 12:06:49;;;;;;;3.90;3.40;;;50.50;99.90;;;;;;5053525;28;20212;-84
2023/09/08 12:09:16;;;;;;;8.90;3.60;;;50.70;99.90;;;;;;5055757;28;20201;-82
2023/09/08 12:11:42;;;;;;;4.20;3.53;;;49.80;99.90;;;;;;5054246;28;20426;-83
2023/09/08 12:14:10;;;;;;;5.30;3.57;;;49.80;99.90;;;;;;5055891;28;20408;-82
2023/09/08 12:16:36;;;;;;;4.87;3.60;;;49.70;99.90;;;;;;5053469;28;20428;-82
2023/09/08 12:19:01;;;;;;;4.10;3.30;;;49.80;99.90;;;;;;5052972;28;20452;-84
2023/09/08 12:21:27;;;;;;;6.17;3.50;;;49.50;99.90;;;;;;5054519;28;20256;-83
2023/09/08 12:23:53;;;;;;;4.40;4.00;;;49.40;99.90;;;;;;5054719;28;20197;-81
2023/09/08 12:26:20;;;;;;;6.90;3.80;;;49.00;99.90;;;;;;5055189;28;20606;-82
2023/09/08 12:28:46;;;;;;;5.60;3.40;;;48.50;99.90;;;;;;5053782;28;20900;-83
2023/09/08 12:31:17;;;;;;;4.70;3.53;;;47.60;99.90;;;;;;5054647;28;20428;-83
2023/09/08 12:33:43;;;;;;;3.63;3.30;;;46.60;99.90;;;;;;5054590;28;20505;-82
2023/09/08 12:36:14;;;;;;;5.20;4.40;;;46.60;99.90;;;;;;5050710;28;20455;-81
2023/09/08 12:38:39;;;;;;;5.27;3.90;;;46.70;99.90;;;;;;5049213;28;20443;-81
2023/09/08 12:41:05;;;;;;;7.13;3.60;;;46.80;99.90;;;;;;5054114;28;20821;-83
2023/09/08 12:43:30;;;;;;;6.03;3.83;;;46.20;99.90;;;;;;5055221;28;20185;-82